createdAt,value
2023-03-10T00:02:29.613Z,25.81
2023-03-10T00:06:29.701Z,25.83
2023-03-10T00:10:29.811Z,25.83
2023-03-10T00:14:29.906Z,25.83
2023-03-10T00:18:29.963Z,25.85
2023-03-10T00:22:30.055Z,25.82
2023-03-10T00:26:30.205Z,25.83
2023-03-10T00:30:31.919Z,25.83
2023-03-10T00:34:30.245Z,25.85
2023-03-10T00:38:30.174Z,25.82
2023-03-10T00:42:30.154Z,25.81
2023-03-10T00:46:30.299Z,25.81
2023-03-10T00:50:30.097Z,25.79
2023-03-10T00:54:30.037Z,25.79
2023-03-10T00:58:30.008Z,25.79
2023-03-10T01:02:29.961Z,25.79
2023-03-10T01:06:29.947Z,25.81
2023-03-10T01:10:29.912Z,25.78
2023-03-10T01:14:29.857Z,25.78
2023-03-10T01:18:29.852Z,25.78
2023-03-10T01:22:29.777Z,25.78
2023-03-10T01:26:29.775Z,25.78
2023-03-10T01:30:29.768Z,25.76
2023-03-10T01:34:29.703Z,25.78
2023-03-10T01:38:29.631Z,25.76
2023-03-10T01:42:29.617Z,25.76
2023-03-10T01:46:29.886Z,25.78
2023-03-10T01:50:29.920Z,25.76
2023-03-10T01:54:29.980Z,25.75
2023-03-10T01:58:30.118Z,25.75
2023-03-10T02:02:30.322Z,25.76
2023-03-10T02:06:30.449Z,25.73
2023-03-10T02:10:30.538Z,25.75
2023-03-10T02:14:30.676Z,25.75
2023-03-10T02:18:30.805Z,25.73
2023-03-10T02:22:30.946Z,25.75
2023-03-10T02:26:31.120Z,25.76
2023-03-10T02:30:31.231Z,25.75
2023-03-10T02:34:31.373Z,25.73
2023-03-10T02:38:31.553Z,25.75
2023-03-10T02:42:31.676Z,25.73
2023-03-10T02:46:31.819Z,25.75
2023-03-10T02:50:31.936Z,25.75
2023-03-10T02:54:32.080Z,25.71
2023-03-10T02:58:32.186Z,25.72
2023-03-10T03:02:32.319Z,25.73
2023-03-10T03:06:32.441Z,25.73
2023-03-10T03:10:32.572Z,25.73
2023-03-10T03:14:32.694Z,25.73
2023-03-10T03:18:32.834Z,25.72
2023-03-10T03:22:33.014Z,25.72
2023-03-10T03:26:33.180Z,25.75
2023-03-10T03:30:33.309Z,25.72
2023-03-10T03:34:33.436Z,25.73
2023-03-10T03:38:33.569Z,25.73
2023-03-10T03:42:33.781Z,25.72
2023-03-10T03:46:33.984Z,25.71
2023-03-10T03:50:34.036Z,25.71
2023-03-10T03:54:34.216Z,25.69
2023-03-10T03:58:34.362Z,25.68
2023-03-10T04:02:34.596Z,25.71
2023-03-10T04:06:34.667Z,25.71
2023-03-10T04:10:34.820Z,25.72
2023-03-10T04:14:35.030Z,25.69
2023-03-10T04:18:35.189Z,25.72
2023-03-10T04:22:35.338Z,25.71
2023-03-10T04:26:35.469Z,25.71
2023-03-10T04:30:35.667Z,25.69
2023-03-10T04:34:35.818Z,25.69
2023-03-10T04:38:35.978Z,25.71
2023-03-10T04:42:36.147Z,25.71
2023-03-10T04:46:36.299Z,25.69
2023-03-10T04:50:36.401Z,25.69
2023-03-10T04:54:36.606Z,25.66
2023-03-10T04:58:36.673Z,25.68
2023-03-10T05:02:36.892Z,25.66
2023-03-10T05:06:37.009Z,25.69
2023-03-10T05:10:37.159Z,25.69
2023-03-10T05:14:37.337Z,25.66
2023-03-10T05:18:37.439Z,25.66
2023-03-10T05:22:37.619Z,25.68
2023-03-10T05:26:38.326Z,25.65
2023-03-10T05:30:37.930Z,25.65
2023-03-10T05:34:38.093Z,25.65
2023-03-10T05:38:38.266Z,25.66
2023-03-10T05:42:38.377Z,25.66
2023-03-10T05:46:38.594Z,25.65
2023-03-10T05:50:38.752Z,25.65
2023-03-10T05:54:38.881Z,25.66
2023-03-10T05:58:39.028Z,25.66
2023-03-10T06:02:39.212Z,25.66
2023-03-10T06:06:39.382Z,25.68
2023-03-10T06:10:39.542Z,25.65
2023-03-10T06:14:39.696Z,25.65
2023-03-10T06:18:39.854Z,25.66
2023-03-10T06:22:40.024Z,25.66
2023-03-10T06:26:40.372Z,25.71
2023-03-10T06:30:40.381Z,25.69
2023-03-10T06:34:40.385Z,25.79
2023-03-10T06:38:40.459Z,25.85
2023-03-10T06:42:40.892Z,25.99
2023-03-10T06:46:40.472Z,26.12
2023-03-10T06:50:40.443Z,26.22
2023-03-10T06:54:40.517Z,26.33
2023-03-10T06:58:40.731Z,26.43
2023-03-10T07:02:40.665Z,26.51
2023-03-10T07:06:40.645Z,26.58
2023-03-10T07:10:40.569Z,26.65
2023-03-10T07:14:40.572Z,26.74
2023-03-10T07:18:40.542Z,26.80
2023-03-10T07:22:40.482Z,26.80
2023-03-10T07:26:40.434Z,26.91
2023-03-10T07:30:40.444Z,26.92
2023-03-10T07:34:40.446Z,26.84
2023-03-10T07:38:40.360Z,26.81
2023-03-10T07:42:40.299Z,26.34
2023-03-10T07:46:40.303Z,26.09
2023-03-10T07:50:40.245Z,26.04
2023-03-10T07:54:40.206Z,25.97
2023-03-10T07:58:40.758Z,25.79
2023-03-10T08:02:40.839Z,25.72
2023-03-10T08:06:40.634Z,25.60
2023-03-10T08:10:40.769Z,25.64
2023-03-10T08:14:41.535Z,25.64
2023-03-10T08:18:41.677Z,25.68
2023-03-10T08:22:41.436Z,25.71
2023-03-10T08:26:41.393Z,25.71
2023-03-10T08:30:56.963Z,25.41
2023-03-10T08:34:42.924Z,25.46
2023-03-10T08:38:41.508Z,25.76
2023-03-10T08:42:41.905Z,26.09
2023-03-10T08:46:41.611Z,26.33
2023-03-10T08:50:42.405Z,26.60
2023-03-10T08:54:41.466Z,26.75
2023-03-10T08:58:41.441Z,26.92
2023-03-10T09:02:41.993Z,27.03
2023-03-10T09:06:41.329Z,27.15
2023-03-10T09:10:41.308Z,27.06
2023-03-10T09:14:41.440Z,26.87
2023-03-10T09:18:41.307Z,26.78
2023-03-10T09:22:41.187Z,26.61
2023-03-10T09:26:44.234Z,26.16
2023-03-10T09:30:41.161Z,25.89
2023-03-10T09:34:41.124Z,25.82
2023-03-10T09:43:00.158Z,25.52
2023-03-10T09:47:00.003Z,25.65
2023-03-10T09:50:59.896Z,25.61
2023-03-10T09:54:59.863Z,25.57
2023-03-10T09:58:59.845Z,25.72
2023-03-10T10:02:59.835Z,25.88
2023-03-10T10:06:59.820Z,25.99
2023-03-10T10:10:59.734Z,26.10
2023-03-10T10:14:59.668Z,26.27
2023-03-10T10:18:59.727Z,26.44
2023-03-10T10:22:59.593Z,26.60
2023-03-10T10:26:59.658Z,26.67
2023-03-10T10:31:00.213Z,26.82
2023-03-10T10:34:59.819Z,26.87
2023-03-10T10:38:59.801Z,26.91
2023-03-10T10:42:59.749Z,26.90
2023-03-10T10:46:59.708Z,26.94
2023-03-10T10:50:59.715Z,26.92
2023-03-10T10:54:59.656Z,26.95
2023-03-10T10:58:59.632Z,26.98
2023-03-10T11:02:59.574Z,27.02
2023-03-10T11:06:59.563Z,27.03
2023-03-10T11:10:59.754Z,27.03
2023-03-10T11:15:00.205Z,27.09
2023-03-10T11:19:00.233Z,27.13
2023-03-10T11:23:00.386Z,27.11
2023-03-10T11:27:00.466Z,27.18
2023-03-10T11:31:00.648Z,27.25
2023-03-10T11:35:00.776Z,27.16
2023-03-10T11:39:00.796Z,26.98
2023-03-10T11:43:00.710Z,26.82
2023-03-10T11:47:00.838Z,26.65
2023-03-10T11:51:00.700Z,26.53
2023-03-10T11:55:00.673Z,26.57
2023-03-10T11:59:00.555Z,26.73
2023-03-10T12:03:00.731Z,26.90
2023-03-10T12:07:01.286Z,27.05
2023-03-10T12:11:02.141Z,27.16
2023-03-10T12:15:00.701Z,27.24
2023-03-10T12:19:00.509Z,27.13
2023-03-10T12:23:00.333Z,27.06
2023-03-10T12:27:00.799Z,27.01
2023-03-10T12:31:00.953Z,27.01
2023-03-10T12:35:00.408Z,26.97
2023-03-10T12:39:00.909Z,26.97
2023-03-10T12:43:00.311Z,26.98
2023-03-10T12:47:00.520Z,26.98
2023-03-10T12:51:00.639Z,26.95
2023-03-10T12:55:00.189Z,26.97
2023-03-10T12:59:00.764Z,26.95
2023-03-10T13:03:00.569Z,26.92
2023-03-10T13:07:00.459Z,26.94
2023-03-10T13:11:00.239Z,26.92
2023-03-10T13:15:00.204Z,26.85
2023-03-10T13:19:00.159Z,26.85
2023-03-10T13:23:00.118Z,26.87
2023-03-10T13:27:00.495Z,26.88
2023-03-10T13:31:00.224Z,26.90
2023-03-10T13:35:00.199Z,26.87
2023-03-10T13:39:00.059Z,26.85
2023-03-10T13:43:00.210Z,26.85
2023-03-10T13:47:00.009Z,26.85
2023-03-10T13:51:00.113Z,26.82
2023-03-10T13:54:59.911Z,26.82
2023-03-10T13:58:59.967Z,26.82
2023-03-10T14:02:59.854Z,26.80
2023-03-10T14:06:59.821Z,26.77
2023-03-10T14:11:00.172Z,26.74
2023-03-10T14:14:59.821Z,26.74
2023-03-10T14:18:59.813Z,26.71
2023-03-10T14:22:59.755Z,26.73
2023-03-10T14:26:59.668Z,26.73
2023-03-10T14:30:59.636Z,26.71
2023-03-10T14:34:59.580Z,26.67
2023-03-10T14:38:59.519Z,26.68
2023-03-10T14:42:59.482Z,26.68
2023-03-10T14:46:59.840Z,26.67
2023-03-10T14:50:59.503Z,26.70
2023-03-10T14:54:59.669Z,26.64
2023-03-10T14:58:59.530Z,26.65
2023-03-10T15:02:59.585Z,26.65
2023-03-10T15:07:00.286Z,26.64
2023-03-10T15:10:59.644Z,26.64
2023-03-10T15:14:59.358Z,26.62
2023-03-10T15:18:59.480Z,26.58
2023-03-10T15:22:59.406Z,26.58
2023-03-10T15:26:59.552Z,26.60
2023-03-10T15:30:59.339Z,26.58
2023-03-10T15:34:59.311Z,26.57
2023-03-10T15:38:59.299Z,26.55
2023-03-10T15:42:59.302Z,26.55
2023-03-10T15:46:59.493Z,26.53
2023-03-10T15:50:59.312Z,26.53
2023-03-10T15:54:59.296Z,26.53
2023-03-10T15:58:59.256Z,26.53
2023-03-10T16:02:59.295Z,26.51
2023-03-10T16:06:59.266Z,26.47
2023-03-10T16:10:59.282Z,26.47
2023-03-10T16:14:59.320Z,26.44
2023-03-10T16:18:59.326Z,26.43
2023-03-10T16:22:59.466Z,26.46
2023-03-10T16:26:59.384Z,26.43
2023-03-10T16:30:59.399Z,26.46
2023-03-10T16:34:59.458Z,26.43
2023-03-10T16:38:59.477Z,26.41
2023-03-10T16:42:59.524Z,26.39
2023-03-10T16:46:59.597Z,26.39
2023-03-10T16:50:59.631Z,26.36
2023-03-10T16:54:59.663Z,26.33
2023-03-10T16:58:59.752Z,26.34
2023-03-10T17:02:59.806Z,26.33
2023-03-10T17:06:59.863Z,26.30
2023-03-10T17:10:59.926Z,26.33
2023-03-10T17:14:59.977Z,26.33
2023-03-10T17:19:00.112Z,26.29
2023-03-10T17:23:00.184Z,26.29
2023-03-10T17:27:00.277Z,26.26
2023-03-10T17:31:00.347Z,26.24
2023-03-10T17:35:00.436Z,26.24
2023-03-10T17:39:00.524Z,26.24
2023-03-10T17:43:13.183Z,26.22
2023-03-10T17:47:01.578Z,26.23
2023-03-10T17:51:00.534Z,26.20
2023-03-10T17:55:00.594Z,26.17
2023-03-10T17:59:00.468Z,26.20
2023-03-10T18:03:00.582Z,26.19
2023-03-10T18:07:00.581Z,26.19
2023-03-10T18:11:00.717Z,26.17
2023-03-10T18:15:00.805Z,26.16
2023-03-10T18:19:00.901Z,26.16
2023-03-10T18:23:01.018Z,26.15
2023-03-10T18:27:01.221Z,26.15
2023-03-10T18:31:01.246Z,26.13
2023-03-10T18:35:01.312Z,26.13
2023-03-10T18:39:01.446Z,26.10
2023-03-10T18:43:01.520Z,26.12
2023-03-10T18:47:01.650Z,26.10
2023-03-10T18:51:01.735Z,26.12
2023-03-10T18:55:01.807Z,26.06
2023-03-10T18:59:01.937Z,26.09
2023-03-10T19:03:02.078Z,26.07
2023-03-10T19:07:02.131Z,26.04
2023-03-10T19:11:02.251Z,26.06
2023-03-10T19:15:02.338Z,26.04
2023-03-10T19:19:02.584Z,26.04
2023-03-10T19:23:02.545Z,26.04
2023-03-10T19:27:02.607Z,26.02
2023-03-10T19:31:02.739Z,25.99
2023-03-10T19:35:02.876Z,26.00
2023-03-10T19:39:02.930Z,26.02
2023-03-10T19:43:03.027Z,26.00
2023-03-10T19:47:03.102Z,25.99
2023-03-10T19:51:03.212Z,25.99
2023-03-10T19:55:03.328Z,25.96
2023-03-10T19:59:03.394Z,25.96
2023-03-10T20:03:03.560Z,25.96
2023-03-10T20:07:03.629Z,26.00
2023-03-10T20:11:03.715Z,25.97
2023-03-10T20:15:03.840Z,25.93
2023-03-10T20:19:03.962Z,25.97
2023-03-10T20:23:04.088Z,25.93
2023-03-10T20:27:04.235Z,25.93
2023-03-10T20:31:04.343Z,25.93
2023-03-10T20:35:04.445Z,25.96
2023-03-10T20:39:04.576Z,25.93
2023-03-10T20:43:04.698Z,25.95
2023-03-10T20:47:04.925Z,25.95
2023-03-10T20:51:04.973Z,25.93
2023-03-10T20:55:05.124Z,25.91
2023-03-10T20:59:05.247Z,25.89
2023-03-10T21:03:05.411Z,25.86
2023-03-10T21:07:05.539Z,25.88
2023-03-10T21:11:05.674Z,25.92
2023-03-10T21:15:05.819Z,25.89
2023-03-10T21:19:05.998Z,25.88
2023-03-10T21:23:06.144Z,25.88
2023-03-10T21:27:06.257Z,25.91
2023-03-10T21:31:06.447Z,25.86
2023-03-10T21:35:06.508Z,25.88
2023-03-10T21:39:06.650Z,25.86
2023-03-10T21:43:06.807Z,25.83
2023-03-10T21:47:06.945Z,25.86
2023-03-10T21:51:07.165Z,25.88
2023-03-10T21:55:07.199Z,25.83
2023-03-10T21:59:07.364Z,25.85
2023-03-10T22:03:07.510Z,25.85
2023-03-10T22:07:07.619Z,25.83
2023-03-10T22:11:07.787Z,25.85
2023-03-10T22:15:07.994Z,25.85
2023-03-10T22:19:08.052Z,25.83
2023-03-10T22:23:08.181Z,25.86
2023-03-10T22:27:08.299Z,25.86
2023-03-10T22:31:08.472Z,25.85
2023-03-10T22:35:08.611Z,25.81
2023-03-10T22:39:08.758Z,25.85
2023-03-10T22:43:08.885Z,25.82
2023-03-10T22:47:09.069Z,25.79
2023-03-10T22:51:09.221Z,25.79
2023-03-10T22:55:09.376Z,25.81
2023-03-10T22:59:09.531Z,25.78
2023-03-10T23:03:09.723Z,25.79
2023-03-10T23:07:09.846Z,25.76
2023-03-10T23:11:10.027Z,25.82
2023-03-10T23:15:22.383Z,25.81
2023-03-10T23:19:11.140Z,25.79
2023-03-10T23:23:10.097Z,25.81
2023-03-10T23:27:10.163Z,25.78
2023-03-10T23:31:10.429Z,25.79
2023-03-10T23:35:10.516Z,25.78
2023-03-10T23:39:10.667Z,25.78
2023-03-10T23:43:10.840Z,25.78
2023-03-10T23:47:11.112Z,25.76
2023-03-10T23:51:11.190Z,25.78
2023-03-10T23:55:11.365Z,25.81
2023-03-10T23:59:11.560Z,25.76
